sensor_id;sensor_type;location;lat;lon;timestamp;temperature;humidity
71837;DHT22;59686;51.716;7.016;2023-03-23T00:01:15;12.80;90.40
71837;DHT22;59686;51.716;7.016;2023-03-23T00:03:46;12.80;90.40
71837;DHT22;59686;51.716;7.016;2023-03-23T00:06:12;12.80;90.50
71837;DHT22;59686;51.716;7.016;2023-03-23T00:08:44;12.80;90.40
71837;DHT22;59686;51.716;7.016;2023-03-23T00:11:12;12.80;90.40
71837;DHT22;59686;51.716;7.016;2023-03-23T00:13:43;12.80;90.40
71837;DHT22;59686;51.716;7.016;2023-03-23T00:16:10;12.80;90.40
71837;DHT22;59686;51.716;7.016;2023-03-23T00:18:46;12.80;90.40
71837;DHT22;59686;51.716;7.016;2023-03-23T00:21:12;13.00;90.40
71837;DHT22;59686;51.716;7.016;2023-03-23T00:23:39;12.80;90.40
71837;DHT22;59686;51.716;7.016;2023-03-23T00:26:05;12.80;90.30
71837;DHT22;59686;51.716;7.016;2023-03-23T00:28:34;12.80;90.30
71837;DHT22;59686;51.716;7.016;2023-03-23T00:31:02;12.80;90.40
71837;DHT22;59686;51.716;7.016;2023-03-23T00:33:30;12.80;90.30
71837;DHT22;59686;51.716;7.016;2023-03-23T00:35:59;12.90;90.70
71837;DHT22;59686;51.716;7.016;2023-03-23T00:38:25;12.80;90.30
71837;DHT22;59686;51.716;7.016;2023-03-23T00:40:51;12.80;90.40
71837;DHT22;59686;51.716;7.016;2023-03-23T00:43:18;12.80;90.30
71837;DHT22;59686;51.716;7.016;2023-03-23T00:45:45;12.80;90.20
71837;DHT22;59686;51.716;7.016;2023-03-23T00:48:22;12.80;90.30
71837;DHT22;59686;51.716;7.016;2023-03-23T00:50:49;12.80;90.20
71837;DHT22;59686;51.716;7.016;2023-03-23T00:53:17;12.70;90.20
71837;DHT22;59686;51.716;7.016;2023-03-23T00:55:44;12.80;90.20
71837;DHT22;59686;51.716;7.016;2023-03-23T00:58:11;12.80;90.30
71837;DHT22;59686;51.716;7.016;2023-03-23T01:00:37;12.80;90.20
71837;DHT22;59686;51.716;7.016;2023-03-23T01:03:04;12.80;90.20
71837;DHT22;59686;51.716;7.016;2023-03-23T01:05:35;12.70;90.20
71837;DHT22;59686;51.716;7.016;2023-03-23T01:08:01;12.80;90.10
71837;DHT22;59686;51.716;7.016;2023-03-23T01:10:27;12.80;90.20
71837;DHT22;59686;51.716;7.016;2023-03-23T01:12:54;12.80;90.20
71837;DHT22;59686;51.716;7.016;2023-03-23T01:15:21;12.80;90.10
71837;DHT22;59686;51.716;7.016;2023-03-23T01:17:46;12.80;90.20
71837;DHT22;59686;51.716;7.016;2023-03-23T01:20:14;12.80;90.10
71837;DHT22;59686;51.716;7.016;2023-03-23T01:22:41;12.70;90.10
71837;DHT22;59686;51.716;7.016;2023-03-23T01:25:09;12.80;90.20
71837;DHT22;59686;51.716;7.016;2023-03-23T01:27:35;12.80;90.10
71837;DHT22;59686;51.716;7.016;2023-03-23T01:30:02;12.80;90.20
71837;DHT22;59686;51.716;7.016;2023-03-23T01:32:35;12.80;90.10
71837;DHT22;59686;51.716;7.016;2023-03-23T01:35:00;12.80;90.10
71837;DHT22;59686;51.716;7.016;2023-03-23T01:37:26;12.80;90.10
71837;DHT22;59686;51.716;7.016;2023-03-23T01:39:53;12.80;90.10
71837;DHT22;59686;51.716;7.016;2023-03-23T01:42:31;12.80;90.10
71837;DHT22;59686;51.716;7.016;2023-03-23T01:47:48;12.80;90.10
71837;DHT22;59686;51.716;7.016;2023-03-23T01:50:17;12.80;90.10
71837;DHT22;59686;51.716;7.016;2023-03-23T01:52:43;12.70;90.10
71837;DHT22;59686;51.716;7.016;2023-03-23T01:55:09;12.80;90.10
71837;DHT22;59686;51.716;7.016;2023-03-23T01:57:35;12.70;90.10
71837;DHT22;59686;51.716;7.016;2023-03-23T02:00:05;12.80;90.10
71837;DHT22;59686;51.716;7.016;2023-03-23T02:02:36;12.80;90.00
71837;DHT22;59686;51.716;7.016;2023-03-23T02:05:10;12.80;90.10
71837;DHT22;59686;51.716;7.016;2023-03-23T02:07:37;12.80;90.00
71837;DHT22;59686;51.716;7.016;2023-03-23T02:10:10;12.80;90.00
71837;DHT22;59686;51.716;7.016;2023-03-23T02:12:35;12.80;90.00
71837;DHT22;59686;51.716;7.016;2023-03-23T02:15:01;12.80;90.00
71837;DHT22;59686;51.716;7.016;2023-03-23T02:26:02;12.80;90.10
71837;DHT22;59686;51.716;7.016;2023-03-23T02:28:39;12.80;90.10
71837;DHT22;59686;51.716;7.016;2023-03-23T02:31:32;12.80;90.20
71837;DHT22;59686;51.716;7.016;2023-03-23T02:34:25;12.80;90.10
71837;DHT22;59686;51.716;7.016;2023-03-23T02:36:56;12.70;90.10
71837;DHT22;59686;51.716;7.016;2023-03-23T02:39:32;12.80;90.10
71837;DHT22;59686;51.716;7.016;2023-03-23T02:42:06;12.80;90.10
71837;DHT22;59686;51.716;7.016;2023-03-23T02:44:34;12.90;90.10
71837;DHT22;59686;51.716;7.016;2023-03-23T02:47:04;12.90;90.40
71837;DHT22;59686;51.716;7.016;2023-03-23T02:49:32;12.80;90.10
71837;DHT22;59686;51.716;7.016;2023-03-23T02:52:08;12.70;90.10
71837;DHT22;59686;51.716;7.016;2023-03-23T02:54:35;12.80;90.10
71837;DHT22;59686;51.716;7.016;2023-03-23T02:57:02;12.80;90.10
71837;DHT22;59686;51.716;7.016;2023-03-23T02:59:32;12.70;90.10
71837;DHT22;59686;51.716;7.016;2023-03-23T03:02:02;12.70;90.10
71837;DHT22;59686;51.716;7.016;2023-03-23T03:04:30;12.80;90.20
71837;DHT22;59686;51.716;7.016;2023-03-23T03:07:26;12.80;90.20
71837;DHT22;59686;51.716;7.016;2023-03-23T03:10:00;12.70;90.10
71837;DHT22;59686;51.716;7.016;2023-03-23T03:12:32;12.80;90.20
71837;DHT22;59686;51.716;7.016;2023-03-23T03:17:41;12.80;90.20
71837;DHT22;59686;51.716;7.016;2023-03-23T03:20:09;12.80;90.20
71837;DHT22;59686;51.716;7.016;2023-03-23T03:22:38;12.90;90.30
71837;DHT22;59686;51.716;7.016;2023-03-23T03:25:15;12.80;90.20
71837;DHT22;59686;51.716;7.016;2023-03-23T03:27:43;12.80;90.20
71837;DHT22;59686;51.716;7.016;2023-03-23T03:30:13;12.80;90.30
71837;DHT22;59686;51.716;7.016;2023-03-23T03:32:49;12.80;90.30
71837;DHT22;59686;51.716;7.016;2023-03-23T03:35:19;12.80;90.30
71837;DHT22;59686;51.716;7.016;2023-03-23T03:37:46;12.80;90.30
71837;DHT22;59686;51.716;7.016;2023-03-23T03:40:15;12.70;90.30
71837;DHT22;59686;51.716;7.016;2023-03-23T03:42:43;12.60;90.30
71837;DHT22;59686;51.716;7.016;2023-03-23T03:45:11;12.80;90.30
71837;DHT22;59686;51.716;7.016;2023-03-23T03:47:37;12.70;90.30
71837;DHT22;59686;51.716;7.016;2023-03-23T03:50:03;12.80;90.20
71837;DHT22;59686;51.716;7.016;2023-03-23T03:52:29;12.80;90.20
71837;DHT22;59686;51.716;7.016;2023-03-23T03:54:55;12.80;90.20
71837;DHT22;59686;51.716;7.016;2023-03-23T03:57:24;12.80;90.20
71837;DHT22;59686;51.716;7.016;2023-03-23T03:59:50;12.70;90.20
71837;DHT22;59686;51.716;7.016;2023-03-23T04:02:16;12.70;90.20
71837;DHT22;59686;51.716;7.016;2023-03-23T04:04:49;12.80;90.20
71837;DHT22;59686;51.716;7.016;2023-03-23T04:07:15;12.70;90.20
71837;DHT22;59686;51.716;7.016;2023-03-23T04:09:52;12.70;90.20
71837;DHT22;59686;51.716;7.016;2023-03-23T04:12:18;12.80;90.10
71837;DHT22;59686;51.716;7.016;2023-03-23T04:14:44;12.70;90.10
71837;DHT22;59686;51.716;7.016;2023-03-23T04:17:09;12.80;90.10
71837;DHT22;59686;51.716;7.016;2023-03-23T04:19:37;12.80;90.10
71837;DHT22;59686;51.716;7.016;2023-03-23T04:22:04;12.80;90.10
71837;DHT22;59686;51.716;7.016;2023-03-23T04:24:30;12.70;90.10
71837;DHT22;59686;51.716;7.016;2023-03-23T04:26:59;12.70;90.00
71837;DHT22;59686;51.716;7.016;2023-03-23T04:29:25;12.80;90.00
71837;DHT22;59686;51.716;7.016;2023-03-23T04:31:50;12.70;90.00
71837;DHT22;59686;51.716;7.016;2023-03-23T04:34:18;12.70;90.10
71837;DHT22;59686;51.716;7.016;2023-03-23T04:36:44;12.80;90.00
71837;DHT22;59686;51.716;7.016;2023-03-23T04:39:13;12.70;90.00
71837;DHT22;59686;51.716;7.016;2023-03-23T04:41:41;12.70;90.10
71837;DHT22;59686;51.716;7.016;2023-03-23T04:44:07;12.70;90.10
71837;DHT22;59686;51.716;7.016;2023-03-23T04:46:32;12.70;90.10
71837;DHT22;59686;51.716;7.016;2023-03-23T04:48:59;12.90;90.10
71837;DHT22;59686;51.716;7.016;2023-03-23T04:51:30;12.70;90.00
71837;DHT22;59686;51.716;7.016;2023-03-23T04:53:56;12.70;90.10
71837;DHT22;59686;51.716;7.016;2023-03-23T04:56:22;12.80;90.10
71837;DHT22;59686;51.716;7.016;2023-03-23T04:58:48;12.70;90.10
71837;DHT22;59686;51.716;7.016;2023-03-23T05:01:13;12.80;90.10
71837;DHT22;59686;51.716;7.016;2023-03-23T05:03:40;12.80;90.00
71837;DHT22;59686;51.716;7.016;2023-03-23T05:06:06;12.70;90.00
71837;DHT22;59686;51.716;7.016;2023-03-23T05:08:32;12.70;90.00
71837;DHT22;59686;51.716;7.016;2023-03-23T05:10:59;12.70;90.00
71837;DHT22;59686;51.716;7.016;2023-03-23T05:13:27;12.70;90.00
71837;DHT22;59686;51.716;7.016;2023-03-23T05:15:54;12.80;90.00
71837;DHT22;59686;51.716;7.016;2023-03-23T05:18:21;12.70;90.00
71837;DHT22;59686;51.716;7.016;2023-03-23T05:20:47;12.70;90.00
71837;DHT22;59686;51.716;7.016;2023-03-23T05:23:14;12.70;90.00
71837;DHT22;59686;51.716;7.016;2023-03-23T05:25:40;12.80;90.00
71837;DHT22;59686;51.716;7.016;2023-03-23T05:28:10;12.80;90.10
71837;DHT22;59686;51.716;7.016;2023-03-23T05:30:55;12.80;90.00
71837;DHT22;59686;51.716;7.016;2023-03-23T05:33:21;12.80;90.00
71837;DHT22;59686;51.716;7.016;2023-03-23T05:35:47;12.70;90.00
71837;DHT22;59686;51.716;7.016;2023-03-23T05:38:14;12.70;90.00
71837;DHT22;59686;51.716;7.016;2023-03-23T05:40:41;12.70;90.00
71837;DHT22;59686;51.716;7.016;2023-03-23T05:43:08;12.70;90.00
71837;DHT22;59686;51.716;7.016;2023-03-23T05:45:34;12.70;90.00
71837;DHT22;59686;51.716;7.016;2023-03-23T05:48:00;12.80;90.00
71837;DHT22;59686;51.716;7.016;2023-03-23T05:50:26;12.80;90.00
71837;DHT22;59686;51.716;7.016;2023-03-23T05:52:54;12.70;89.90
71837;DHT22;59686;51.716;7.016;2023-03-23T05:55:20;12.80;90.00
71837;DHT22;59686;51.716;7.016;2023-03-23T05:57:46;12.80;90.00
71837;DHT22;59686;51.716;7.016;2023-03-23T06:00:12;12.60;89.80
71837;DHT22;59686;51.716;7.016;2023-03-23T06:02:49;12.70;89.90
71837;DHT22;59686;51.716;7.016;2023-03-23T06:05:16;12.80;90.00
71837;DHT22;59686;51.716;7.016;2023-03-23T06:07:42;12.80;90.00
71837;DHT22;59686;51.716;7.016;2023-03-23T06:10:10;12.60;89.90
71837;DHT22;59686;51.716;7.016;2023-03-23T06:12:37;12.70;89.90
71837;DHT22;59686;51.716;7.016;2023-03-23T06:15:03;12.80;90.00
71837;DHT22;59686;51.716;7.016;2023-03-23T06:17:29;12.70;89.90
71837;DHT22;59686;51.716;7.016;2023-03-23T06:19:55;12.80;90.00
71837;DHT22;59686;51.716;7.016;2023-03-23T06:22:21;12.70;89.90
71837;DHT22;59686;51.716;7.016;2023-03-23T06:24:46;12.80;90.00
71837;DHT22;59686;51.716;7.016;2023-03-23T06:27:12;12.70;90.00
71837;DHT22;59686;51.716;7.016;2023-03-23T06:29:39;12.70;90.00
71837;DHT22;59686;51.716;7.016;2023-03-23T06:32:05;12.70;90.00
71837;DHT22;59686;51.716;7.016;2023-03-23T06:34:31;12.70;90.00
71837;DHT22;59686;51.716;7.016;2023-03-23T06:36:58;12.80;90.00
71837;DHT22;59686;51.716;7.016;2023-03-23T06:39:24;12.70;89.90
71837;DHT22;59686;51.716;7.016;2023-03-23T06:41:50;12.70;89.90
71837;DHT22;59686;51.716;7.016;2023-03-23T06:44:17;12.70;89.90
71837;DHT22;59686;51.716;7.016;2023-03-23T06:46:42;12.90;90.00
71837;DHT22;59686;51.716;7.016;2023-03-23T06:49:08;12.90;89.90
71837;DHT22;59686;51.716;7.016;2023-03-23T06:51:35;12.80;89.80
71837;DHT22;59686;51.716;7.016;2023-03-23T06:54:02;12.80;89.80
71837;DHT22;59686;51.716;7.016;2023-03-23T06:56:28;12.80;89.80
71837;DHT22;59686;51.716;7.016;2023-03-23T06:58:55;12.80;89.80
71837;DHT22;59686;51.716;7.016;2023-03-23T07:01:22;12.70;89.70
71837;DHT22;59686;51.716;7.016;2023-03-23T07:03:48;12.90;89.80
71837;DHT22;59686;51.716;7.016;2023-03-23T07:06:15;12.80;89.70
71837;DHT22;59686;51.716;7.016;2023-03-23T07:08:41;12.80;89.70
71837;DHT22;59686;51.716;7.016;2023-03-23T07:11:07;12.80;89.70
71837;DHT22;59686;51.716;7.016;2023-03-23T07:13:34;12.80;89.50
71837;DHT22;59686;51.716;7.016;2023-03-23T07:16:00;12.70;89.50
71837;DHT22;59686;51.716;7.016;2023-03-23T07:18:26;12.80;89.60
71837;DHT22;59686;51.716;7.016;2023-03-23T07:20:53;12.80;89.60
71837;DHT22;59686;51.716;7.016;2023-03-23T07:23:19;12.80;89.60
71837;DHT22;59686;51.716;7.016;2023-03-23T07:25:45;12.80;89.60
71837;DHT22;59686;51.716;7.016;2023-03-23T07:28:12;12.90;89.50
71837;DHT22;59686;51.716;7.016;2023-03-23T07:30:38;12.80;89.50
71837;DHT22;59686;51.716;7.016;2023-03-23T07:33:06;12.90;89.40
71837;DHT22;59686;51.716;7.016;2023-03-23T07:35:32;12.90;89.30
71837;DHT22;59686;51.716;7.016;2023-03-23T07:37:58;12.80;89.30
71837;DHT22;59686;51.716;7.016;2023-03-23T07:40:27;12.80;89.20
71837;DHT22;59686;51.716;7.016;2023-03-23T07:42:57;12.90;89.30
71837;DHT22;59686;51.716;7.016;2023-03-23T07:45:23;12.80;89.00
71837;DHT22;59686;51.716;7.016;2023-03-23T07:47:49;12.70;89.00
71837;DHT22;59686;51.716;7.016;2023-03-23T07:50:15;12.80;89.00
71837;DHT22;59686;51.716;7.016;2023-03-23T07:52:41;12.80;89.10
71837;DHT22;59686;51.716;7.016;2023-03-23T07:55:09;12.80;89.10
71837;DHT22;59686;51.716;7.016;2023-03-23T07:57:44;12.80;89.00
71837;DHT22;59686;51.716;7.016;2023-03-23T08:00:10;12.80;89.00
71837;DHT22;59686;51.716;7.016;2023-03-23T08:02:48;12.80;88.90
71837;DHT22;59686;51.716;7.016;2023-03-23T08:05:15;12.80;88.80
71837;DHT22;59686;51.716;7.016;2023-03-23T08:07:42;12.90;88.90
71837;DHT22;59686;51.716;7.016;2023-03-23T08:10:09;12.80;88.80
71837;DHT22;59686;51.716;7.016;2023-03-23T08:12:36;12.90;88.80
71837;DHT22;59686;51.716;7.016;2023-03-23T08:15:03;12.90;88.90
71837;DHT22;59686;51.716;7.016;2023-03-23T08:17:29;12.90;88.70
71837;DHT22;59686;51.716;7.016;2023-03-23T08:19:55;12.90;88.70
71837;DHT22;59686;51.716;7.016;2023-03-23T08:22:21;13.00;88.70
71837;DHT22;59686;51.716;7.016;2023-03-23T08:24:47;12.80;88.80
71837;DHT22;59686;51.716;7.016;2023-03-23T08:27:13;12.90;88.80
71837;DHT22;59686;51.716;7.016;2023-03-23T08:29:39;12.90;88.90
71837;DHT22;59686;51.716;7.016;2023-03-23T08:32:06;12.80;89.80
71837;DHT22;59686;51.716;7.016;2023-03-23T08:34:32;12.90;89.30
71837;DHT22;59686;51.716;7.016;2023-03-23T08:36:58;12.80;89.30
71837;DHT22;59686;51.716;7.016;2023-03-23T08:39:27;12.80;89.60
71837;DHT22;59686;51.716;7.016;2023-03-23T08:41:55;12.80;89.60
71837;DHT22;59686;51.716;7.016;2023-03-23T08:44:21;12.80;89.90
71837;DHT22;59686;51.716;7.016;2023-03-23T08:46:47;12.90;90.00
71837;DHT22;59686;51.716;7.016;2023-03-23T08:49:13;12.90;90.10
71837;DHT22;59686;51.716;7.016;2023-03-23T08:51:39;12.80;90.10
71837;DHT22;59686;51.716;7.016;2023-03-23T08:54:06;12.70;90.20
71837;DHT22;59686;51.716;7.016;2023-03-23T08:56:33;12.80;90.20
71837;DHT22;59686;51.716;7.016;2023-03-23T08:58:58;12.90;90.30
71837;DHT22;59686;51.716;7.016;2023-03-23T09:01:27;12.70;90.30
71837;DHT22;59686;51.716;7.016;2023-03-23T09:03:53;12.80;90.30
71837;DHT22;59686;51.716;7.016;2023-03-23T09:06:19;12.60;90.30
71837;DHT22;59686;51.716;7.016;2023-03-23T09:08:45;12.90;90.30
71837;DHT22;59686;51.716;7.016;2023-03-23T09:11:11;12.80;90.30
71837;DHT22;59686;51.716;7.016;2023-03-23T09:13:38;12.80;90.30
71837;DHT22;59686;51.716;7.016;2023-03-23T09:16:05;12.90;90.30
71837;DHT22;59686;51.716;7.016;2023-03-23T09:18:31;12.80;90.30
71837;DHT22;59686;51.716;7.016;2023-03-23T09:21:00;12.80;90.20
71837;DHT22;59686;51.716;7.016;2023-03-23T09:23:27;12.70;90.50
71837;DHT22;59686;51.716;7.016;2023-03-23T09:25:53;12.80;90.20
71837;DHT22;59686;51.716;7.016;2023-03-23T09:28:19;12.90;90.20
71837;DHT22;59686;51.716;7.016;2023-03-23T09:30:45;12.80;90.40
71837;DHT22;59686;51.716;7.016;2023-03-23T09:33:13;12.70;90.60
71837;DHT22;59686;51.716;7.016;2023-03-23T09:35:39;12.80;90.60
71837;DHT22;59686;51.716;7.016;2023-03-23T09:38:08;12.90;90.50
71837;DHT22;59686;51.716;7.016;2023-03-23T09:49:00;12.70;90.00
71837;DHT22;59686;51.716;7.016;2023-03-23T09:54:48;12.70;90.00
71837;DHT22;59686;51.716;7.016;2023-03-23T09:56:55;12.70;90.00
71837;DHT22;59686;51.716;7.016;2023-03-23T09:59:36;12.70;90.00
71837;DHT22;59686;51.716;7.016;2023-03-23T10:02:14;12.80;90.00
71837;DHT22;59686;51.716;7.016;2023-03-23T10:04:46;12.70;90.00
71837;DHT22;59686;51.716;7.016;2023-03-23T10:07:15;12.70;90.00
71837;DHT22;59686;51.716;7.016;2023-03-23T10:09:43;12.70;89.90
71837;DHT22;59686;51.716;7.016;2023-03-23T10:12:33;12.70;89.80
71837;DHT22;59686;51.716;7.016;2023-03-23T10:15:21;12.80;89.80
71837;DHT22;59686;51.716;7.016;2023-03-23T10:17:54;12.80;89.90
71837;DHT22;59686;51.716;7.016;2023-03-23T10:20:25;12.80;89.80
71837;DHT22;59686;51.716;7.016;2023-03-23T10:25:52;12.80;89.70
71837;DHT22;59686;51.716;7.016;2023-03-23T10:28:21;12.80;89.50
71837;DHT22;59686;51.716;7.016;2023-03-23T10:30:53;12.80;89.40
71837;DHT22;59686;51.716;7.016;2023-03-23T10:33:25;12.80;89.30
71837;DHT22;59686;51.716;7.016;2023-03-23T10:35:58;12.70;89.10
71837;DHT22;59686;51.716;7.016;2023-03-23T10:39:06;12.70;89.00
71837;DHT22;59686;51.716;7.016;2023-03-23T10:41:34;12.70;88.90
71837;DHT22;59686;51.716;7.016;2023-03-23T10:44:07;12.80;89.00
71837;DHT22;59686;51.716;7.016;2023-03-23T10:47:04;12.90;89.10
71837;DHT22;59686;51.716;7.016;2023-03-23T10:49:49;12.80;89.10
71837;DHT22;59686;51.716;7.016;2023-03-23T10:52:36;12.70;89.10
71837;DHT22;59686;51.716;7.016;2023-03-23T10:55:15;12.80;89.20
71837;DHT22;59686;51.716;7.016;2023-03-23T10:57:44;12.70;89.20
71837;DHT22;59686;51.716;7.016;2023-03-23T11:00:20;12.70;89.20
71837;DHT22;59686;51.716;7.016;2023-03-23T11:05:36;12.80;89.40
71837;DHT22;59686;51.716;7.016;2023-03-23T11:08:03;12.80;89.40
71837;DHT22;59686;51.716;7.016;2023-03-23T11:10:41;12.80;89.40
71837;DHT22;59686;51.716;7.016;2023-03-23T11:13:15;12.80;89.50
71837;DHT22;59686;51.716;7.016;2023-03-23T11:15:46;12.80;89.50
71837;DHT22;59686;51.716;7.016;2023-03-23T11:18:19;12.80;89.40
71837;DHT22;59686;51.716;7.016;2023-03-23T11:20:48;12.80;89.50
71837;DHT22;59686;51.716;7.016;2023-03-23T11:23:23;12.80;89.50
71837;DHT22;59686;51.716;7.016;2023-03-23T11:28:38;12.80;89.50
71837;DHT22;59686;51.716;7.016;2023-03-23T11:31:07;12.80;89.40
71837;DHT22;59686;51.716;7.016;2023-03-23T11:33:57;12.80;89.40
71837;DHT22;59686;51.716;7.016;2023-03-23T11:36:33;12.80;89.30
71837;DHT22;59686;51.716;7.016;2023-03-23T11:39:00;12.80;89.30
71837;DHT22;59686;51.716;7.016;2023-03-23T11:41:32;12.90;89.30
71837;DHT22;59686;51.716;7.016;2023-03-23T11:44:04;12.90;89.30
71837;DHT22;59686;51.716;7.016;2023-03-23T11:46:55;12.90;89.30
71837;DHT22;59686;51.716;7.016;2023-03-23T11:49:39;12.90;89.20
71837;DHT22;59686;51.716;7.016;2023-03-23T11:52:22;12.90;89.10
71837;DHT22;59686;51.716;7.016;2023-03-23T11:55:33;12.90;89.20
71837;DHT22;59686;51.716;7.016;2023-03-23T11:58:10;12.90;89.10
71837;DHT22;59686;51.716;7.016;2023-03-23T12:06:40;12.90;89.10
71837;DHT22;59686;51.716;7.016;2023-03-23T12:09:32;12.90;89.10
71837;DHT22;59686;51.716;7.016;2023-03-23T12:12:14;12.90;89.20
71837;DHT22;59686;51.716;7.016;2023-03-23T12:15:17;12.90;89.40
71837;DHT22;59686;51.716;7.016;2023-03-23T12:23:11;13.00;89.50
71837;DHT22;59686;51.716;7.016;2023-03-23T12:34:37;13.00;89.40
71837;DHT22;59686;51.716;7.016;2023-03-23T12:48:37;13.00;89.70
71837;DHT22;59686;51.716;7.016;2023-03-23T12:51:19;13.00;89.50
71837;DHT22;59686;51.716;7.016;2023-03-23T12:54:23;13.00;89.50
71837;DHT22;59686;51.716;7.016;2023-03-23T12:57:07;13.00;89.50
71837;DHT22;59686;51.716;7.016;2023-03-23T12:59:41;13.00;89.60
71837;DHT22;59686;51.716;7.016;2023-03-23T13:03:02;13.10;89.70
71837;DHT22;59686;51.716;7.016;2023-03-23T13:05:52;13.10;89.60
71837;DHT22;59686;51.716;7.016;2023-03-23T13:08:31;13.10;89.30
71837;DHT22;59686;51.716;7.016;2023-03-23T13:11:03;13.10;89.60
71837;DHT22;59686;51.716;7.016;2023-03-23T13:13:53;13.10;89.60
71837;DHT22;59686;51.716;7.016;2023-03-23T13:16:31;13.20;89.50
71837;DHT22;59686;51.716;7.016;2023-03-23T13:19:06;13.10;89.70
71837;DHT22;59686;51.716;7.016;2023-03-23T13:24:26;13.20;89.50
71837;DHT22;59686;51.716;7.016;2023-03-23T13:26:53;13.20;89.50
71837;DHT22;59686;51.716;7.016;2023-03-23T13:29:23;13.20;89.70
71837;DHT22;59686;51.716;7.016;2023-03-23T13:31:51;13.20;89.80
71837;DHT22;59686;51.716;7.016;2023-03-23T13:34:25;13.20;89.90
71837;DHT22;59686;51.716;7.016;2023-03-23T13:37:08;13.30;89.90
71837;DHT22;59686;51.716;7.016;2023-03-23T13:42:31;13.30;89.50
71837;DHT22;59686;51.716;7.016;2023-03-23T13:48:19;13.40;88.90
71837;DHT22;59686;51.716;7.016;2023-03-23T13:53:42;13.40;89.20
71837;DHT22;59686;51.716;7.016;2023-03-23T13:59:12;13.50;88.50
71837;DHT22;59686;51.716;7.016;2023-03-23T14:01:39;13.50;88.40
71837;DHT22;59686;51.716;7.016;2023-03-23T14:04:14;13.60;88.40
71837;DHT22;59686;51.716;7.016;2023-03-23T14:06:41;13.60;88.30
71837;DHT22;59686;51.716;7.016;2023-03-23T14:09:38;13.50;89.20
71837;DHT22;59686;51.716;7.016;2023-03-23T14:12:14;13.50;88.60
71837;DHT22;59686;51.716;7.016;2023-03-23T14:14:41;13.50;88.40
71837;DHT22;59686;51.716;7.016;2023-03-23T14:17:17;13.50;88.30
71837;DHT22;59686;51.716;7.016;2023-03-23T14:19:47;13.50;88.40
71837;DHT22;59686;51.716;7.016;2023-03-23T14:22:31;13.50;88.50
71837;DHT22;59686;51.716;7.016;2023-03-23T14:25:15;13.40;88.20
71837;DHT22;59686;51.716;7.016;2023-03-23T14:27:42;13.40;88.00
71837;DHT22;59686;51.716;7.016;2023-03-23T14:30:35;13.50;88.20
71837;DHT22;59686;51.716;7.016;2023-03-23T14:33:06;13.50;88.40
71837;DHT22;59686;51.716;7.016;2023-03-23T14:35:36;13.50;88.30
71837;DHT22;59686;51.716;7.016;2023-03-23T14:38:04;13.50;88.20
71837;DHT22;59686;51.716;7.016;2023-03-23T14:40:30;13.50;88.20
71837;DHT22;59686;51.716;7.016;2023-03-23T14:42:57;13.50;88.10
71837;DHT22;59686;51.716;7.016;2023-03-23T14:45:24;13.50;88.20
71837;DHT22;59686;51.716;7.016;2023-03-23T14:48:17;13.50;88.20
71837;DHT22;59686;51.716;7.016;2023-03-23T14:51:00;13.60;88.00
71837;DHT22;59686;51.716;7.016;2023-03-23T14:53:39;13.70;88.10
71837;DHT22;59686;51.716;7.016;2023-03-23T14:56:13;13.70;88.00
71837;DHT22;59686;51.716;7.016;2023-03-23T14:58:47;13.80;87.90
71837;DHT22;59686;51.716;7.016;2023-03-23T15:01:28;13.70;87.60
71837;DHT22;59686;51.716;7.016;2023-03-23T15:04:09;13.80;87.40
71837;DHT22;59686;51.716;7.016;2023-03-23T15:06:38;13.80;87.50
71837;DHT22;59686;51.716;7.016;2023-03-23T15:09:09;13.80;87.60
71837;DHT22;59686;51.716;7.016;2023-03-23T15:11:39;13.70;87.80
71837;DHT22;59686;51.716;7.016;2023-03-23T15:16:39;13.70;88.20
71837;DHT22;59686;51.716;7.016;2023-03-23T15:19:28;13.60;88.40
71837;DHT22;59686;51.716;7.016;2023-03-23T15:22:15;13.60;88.60
71837;DHT22;59686;51.716;7.016;2023-03-23T15:24:43;13.50;88.80
71837;DHT22;59686;51.716;7.016;2023-03-23T15:27:14;13.60;89.70
71837;DHT22;59686;51.716;7.016;2023-03-23T15:29:55;13.60;89.10
71837;DHT22;59686;51.716;7.016;2023-03-23T15:32:28;13.50;89.10
71837;DHT22;59686;51.716;7.016;2023-03-23T15:34:56;13.60;89.20
71837;DHT22;59686;51.716;7.016;2023-03-23T15:37:28;13.70;89.30
71837;DHT22;59686;51.716;7.016;2023-03-23T15:39:56;13.50;89.30
71837;DHT22;59686;51.716;7.016;2023-03-23T15:50:34;13.60;89.40
71837;DHT22;59686;51.716;7.016;2023-03-23T15:53:13;13.60;89.30
71837;DHT22;59686;51.716;7.016;2023-03-23T15:55:41;13.60;89.30
71837;DHT22;59686;51.716;7.016;2023-03-23T15:58:11;13.60;89.40
71837;DHT22;59686;51.716;7.016;2023-03-23T16:00:38;13.60;89.40
71837;DHT22;59686;51.716;7.016;2023-03-23T16:03:07;13.60;89.20
71837;DHT22;59686;51.716;7.016;2023-03-23T16:05:34;13.60;89.10
71837;DHT22;59686;51.716;7.016;2023-03-23T16:08:00;13.50;89.10
71837;DHT22;59686;51.716;7.016;2023-03-23T16:10:28;13.70;89.10
71837;DHT22;59686;51.716;7.016;2023-03-23T16:12:53;13.50;88.70
71837;DHT22;59686;51.716;7.016;2023-03-23T16:15:19;13.70;88.70
71837;DHT22;59686;51.716;7.016;2023-03-23T16:17:45;13.50;88.60
71837;DHT22;59686;51.716;7.016;2023-03-23T16:20:17;13.60;88.50
71837;DHT22;59686;51.716;7.016;2023-03-23T16:22:44;13.60;88.40
71837;DHT22;59686;51.716;7.016;2023-03-23T16:25:11;13.60;88.20
71837;DHT22;59686;51.716;7.016;2023-03-23T16:27:37;13.60;88.00
71837;DHT22;59686;51.716;7.016;2023-03-23T16:30:14;13.70;87.80
71837;DHT22;59686;51.716;7.016;2023-03-23T16:32:41;13.70;87.70
71837;DHT22;59686;51.716;7.016;2023-03-23T16:35:08;13.70;87.80
71837;DHT22;59686;51.716;7.016;2023-03-23T16:37:34;13.70;87.80
71837;DHT22;59686;51.716;7.016;2023-03-23T16:40:01;13.70;87.80
71837;DHT22;59686;51.716;7.016;2023-03-23T16:42:27;13.70;87.80
71837;DHT22;59686;51.716;7.016;2023-03-23T16:44:53;13.70;87.60
71837;DHT22;59686;51.716;7.016;2023-03-23T16:47:19;13.60;87.60
71837;DHT22;59686;51.716;7.016;2023-03-23T16:49:48;13.70;87.60
71837;DHT22;59686;51.716;7.016;2023-03-23T16:52:13;13.70;87.60
71837;DHT22;59686;51.716;7.016;2023-03-23T16:54:39;13.70;88.30
71837;DHT22;59686;51.716;7.016;2023-03-23T16:57:05;13.70;87.90
71837;DHT22;59686;51.716;7.016;2023-03-23T16:59:32;13.80;87.60
71837;DHT22;59686;51.716;7.016;2023-03-23T17:01:57;13.80;87.50
71837;DHT22;59686;51.716;7.016;2023-03-23T17:04:29;13.70;87.50
71837;DHT22;59686;51.716;7.016;2023-03-23T17:06:55;13.70;87.60
71837;DHT22;59686;51.716;7.016;2023-03-23T17:09:25;13.80;87.50
71837;DHT22;59686;51.716;7.016;2023-03-23T17:11:52;13.70;87.50
71837;DHT22;59686;51.716;7.016;2023-03-23T17:14:18;13.80;87.60
71837;DHT22;59686;51.716;7.016;2023-03-23T17:16:44;13.70;87.50
71837;DHT22;59686;51.716;7.016;2023-03-23T17:19:14;13.70;87.60
71837;DHT22;59686;51.716;7.016;2023-03-23T17:21:40;13.80;87.70